Time;durP1;ratioP1;P1;durP2;ratioP2;P2;SDS_P1;SDS_P2;PMS_P1;PMS_P2;Temp;Humidity;BMP_temperature;BMP_pressure;BME280_temperature;BME280_humidity;BME280_pressure;Samples;Min_cycle;Max_cycle;Signal;HPM_P1;HPM_P2
2023/07/16 00:00:58;;;;;;;15.23;8.00;;;;;;;;;;6059349;23;20464;-54
2023/07/16 00:03:25;;;;;;;14.57;8.25;;;;;;;;;;6058167;23;20031;-51
2023/07/16 00:05:59;;;;;;;13.05;8.25;;;;;;;;;;6058087;23;20034;-53
2023/07/16 00:08:26;;;;;;;11.90;8.05;;;;;;;;;;6058820;23;20049;-59
2023/07/16 00:10:53;;;;;;;11.32;8.48;;;;;;;;;;6060346;23;20023;-65
2023/07/16 00:13:27;;;;;;;9.65;6.72;;;;;;;;;;6057957;23;20031;-66
2023/07/16 00:15:54;;;;;;;11.10;7.80;;;;;;;;;;6058097;23;20031;-66
2023/07/16 00:18:21;;;;;;;9.82;7.72;;;;;;;;;;6057845;23;20018;-65
2023/07/16 00:20:55;;;;;;;12.52;6.90;;;;;;;;;;6059635;23;20033;-66
2023/07/16 00:23:22;;;;;;;9.43;7.03;;;;;;;;;;6058319;23;20062;-66
2023/07/16 00:26:03;;;;;;;10.30;7.20;;;;;;;;;;6059342;23;20023;-58
2023/07/16 00:28:37;;;;;;;9.18;7.10;;;;;;;;;;6057235;23;20093;-58
2023/07/16 00:31:11;;;;;;;8.32;7.18;;;;;;;;;;6060578;23;20027;-58
2023/07/16 00:33:38;;;;;;;7.57;5.82;;;;;;;;;;6058584;23;20521;-57
2023/07/16 00:36:06;;;;;;;11.95;7.60;;;;;;;;;;6059430;23;20475;-64
2023/07/16 00:38:41;;;;;;;9.43;6.75;;;;;;;;;;6056507;23;20086;-58
2023/07/16 00:41:08;;;;;;;8.95;6.78;;;;;;;;;;6059801;23;20086;-57
2023/07/16 00:43:42;;;;;;;12.43;6.93;;;;;;;;;;6059056;23;20435;-58
2023/07/16 00:46:10;;;;;;;8.88;7.22;;;;;;;;;;6058694;23;20478;-58
2023/07/16 00:48:38;;;;;;;12.55;7.65;;;;;;;;;;6057751;23;20106;-58
2023/07/16 00:51:12;;;;;;;9.20;7.28;;;;;;;;;;6058411;23;20030;-58
2023/07/16 00:53:41;;;;;;;13.20;7.63;;;;;;;;;;6058518;23;20107;-59
2023/07/16 00:56:09;;;;;;;8.85;6.50;;;;;;;;;;6060718;23;20031;-59
2023/07/16 00:58:44;;;;;;;9.43;6.47;;;;;;;;;;6057683;23;20479;-58
2023/07/16 01:01:11;;;;;;;11.63;8.02;;;;;;;;;;6059868;23;20034;-58
2023/07/16 01:03:45;;;;;;;12.50;7.22;;;;;;;;;;6058230;23;20070;-65
2023/07/16 01:06:24;;;;;;;8.27;6.25;;;;;;;;;;6057561;23;20510;-58
2023/07/16 01:09:07;;;;;;;9.43;6.35;;;;;;;;;;6058749;23;20037;-58
2023/07/16 01:11:38;;;;;;;13.85;7.80;;;;;;;;;;6059916;23;20027;-57
2023/07/16 01:14:12;;;;;;;8.30;6.80;;;;;;;;;;6053375;23;20156;-58
2023/07/16 01:16:41;;;;;;;13.40;7.53;;;;;;;;;;6059080;23;20031;-57
2023/07/16 01:19:08;;;;;;;9.75;7.43;;;;;;;;;;6057812;23;20110;-58
2023/07/16 01:21:57;;;;;;;10.52;7.47;;;;;;;;;;6058461;23;20490;-60
2023/07/16 01:24:43;;;;;;;10.13;6.78;;;;;;;;;;6052236;23;20816;-60
2023/07/16 01:27:42;;;;;;;16.25;9.45;;;;;;;;;;6058079;23;20034;-60
2023/07/16 01:30:16;;;;;;;20.02;10.43;;;;;;;;;;6059542;23;20395;-59
2023/07/16 01:32:51;;;;;;;23.25;11.38;;;;;;;;;;6058009;23;20098;-59
2023/07/16 01:35:18;;;;;;;12.20;8.55;;;;;;;;;;6059054;23;20027;-58
2023/07/16 01:37:46;;;;;;;11.15;7.10;;;;;;;;;;6056800;23;20071;-58
2023/07/16 01:40:19;;;;;;;14.00;6.97;;;;;;;;;;6059592;23;20035;-58
2023/07/16 01:42:46;;;;;;;8.13;6.18;;;;;;;;;;6058288;23;20030;-58
2023/07/16 01:45:20;;;;;;;9.73;5.60;;;;;;;;;;6058324;23;20029;-58
2023/07/16 01:47:47;;;;;;;8.63;4.90;;;;;;;;;;6057468;23;20062;-58
2023/07/16 01:50:15;;;;;;;17.33;6.03;;;;;;;;;;6058379;23;20417;-67
2023/07/16 01:52:49;;;;;;;9.82;5.25;;;;;;;;;;6057651;23;20027;-67
2023/07/16 01:55:16;;;;;;;5.60;4.25;;;;;;;;;;6058937;23;20026;-68
2023/07/16 01:57:50;;;;;;;14.25;5.35;;;;;;;;;;6057392;23;20358;-68
2023/07/16 02:00:17;;;;;;;6.93;4.90;;;;;;;;;;6058551;23;20030;-65
2023/07/16 02:02:45;;;;;;;9.10;5.53;;;;;;;;;;6057408;23;20407;-59
2023/07/16 02:05:18;;;;;;;8.32;4.95;;;;;;;;;;6057869;23;20579;-68
2023/07/16 02:07:45;;;;;;;7.88;4.88;;;;;;;;;;6058781;23;20034;-68
2023/07/16 02:10:19;;;;;;;5.55;4.40;;;;;;;;;;6058907;23;20204;-67
2023/07/16 02:12:47;;;;;;;13.02;5.05;;;;;;;;;;6058591;23;20023;-67
2023/07/16 02:15:14;;;;;;;6.97;4.50;;;;;;;;;;6053073;23;20027;-68
2023/07/16 02:17:48;;;;;;;12.57;5.20;;;;;;;;;;6058309;23;20026;-68
2023/07/16 02:20:15;;;;;;;7.28;5.03;;;;;;;;;;6059508;23;20082;-56
2023/07/16 02:22:49;;;;;;;13.30;4.93;;;;;;;;;;6059135;23;20031;-54
2023/07/16 02:25:16;;;;;;;10.45;5.43;;;;;;;;;;6057237;23;20035;-54
2023/07/16 02:27:44;;;;;;;10.27;4.88;;;;;;;;;;6056221;23;20027;-55
2023/07/16 02:30:24;;;;;;;8.52;4.72;;;;;;;;;;6058559;23;20366;-59
2023/07/16 02:32:51;;;;;;;9.15;4.80;;;;;;;;;;6058288;23;20031;-60
2023/07/16 02:35:25;;;;;;;7.45;4.88;;;;;;;;;;6058718;23;20055;-59
2023/07/16 02:37:52;;;;;;;11.20;5.60;;;;;;;;;;6057924;23;20033;-60
2023/07/16 02:40:20;;;;;;;7.28;5.40;;;;;;;;;;6058102;23;20030;-61
2023/07/16 02:42:53;;;;;;;7.97;5.25;;;;;;;;;;6057503;23;20541;-60
2023/07/16 02:45:27;;;;;;;7.30;5.32;;;;;;;;;;6055466;23;20490;-59
2023/07/16 02:47:54;;;;;;;7.63;5.10;;;;;;;;;;6058646;23;20027;-65
2023/07/16 02:50:21;;;;;;;12.35;6.22;;;;;;;;;;6058010;23;20029;-65
2023/07/16 02:52:55;;;;;;;8.15;4.97;;;;;;;;;;6056405;23;20450;-65
2023/07/16 02:55:22;;;;;;;9.10;5.72;;;;;;;;;;6057138;23;20064;-65
2023/07/16 02:57:56;;;;;;;12.88;6.43;;;;;;;;;;6058738;23;20094;-59
2023/07/16 03:00:24;;;;;;;7.85;5.80;;;;;;;;;;6058237;23;20503;-61
2023/07/16 03:02:51;;;;;;;9.23;6.30;;;;;;;;;;6057193;23;20082;-60
2023/07/16 03:05:26;;;;;;;14.65;7.30;;;;;;;;;;6058090;23;20082;-61
2023/07/16 03:07:53;;;;;;;;;;;;;;;;;;6059143;23;20019;-61
2023/07/16 03:10:21;;;;;;;10.10;6.60;;;;;;;;;;6057862;23;19969;-61
2023/07/16 03:12:54;;;;;;;8.15;6.20;;;;;;;;;;6059049;23;20595;-61
2023/07/16 03:15:25;;;;;;;14.40;6.53;;;;;;;;;;6060295;23;20078;-60
2023/07/16 03:17:58;;;;;;;8.95;6.13;;;;;;;;;;6059148;23;20082;-65
2023/07/16 03:20:26;;;;;;;;;;;;;;;;;;6059897;23;20023;-65
2023/07/16 03:22:53;;;;;;;5.18;4.05;;;;;;;;;;6059433;23;19968;-66
2023/07/16 03:25:34;;;;;;;12.15;5.50;;;;;;;;;;6059926;23;20152;-58
2023/07/16 03:28:08;;;;;;;10.93;5.00;;;;;;;;;;6059418;23;20030;-59
2023/07/16 03:30:45;;;;;;;11.82;4.70;;;;;;;;;;6059679;23;20026;-66
2023/07/16 03:33:12;;;;;;;8.15;4.80;;;;;;;;;;6058804;23;20054;-67
2023/07/16 03:35:40;;;;;;;6.95;4.90;;;;;;;;;;6060223;23;20027;-65
2023/07/16 03:38:13;;;;;;;6.28;4.93;;;;;;;;;;6059505;23;20546;-67
2023/07/16 03:40:42;;;;;;;15.85;5.13;;;;;;;;;;6060721;23;20506;-66
2023/07/16 03:43:09;;;;;;;9.80;5.25;;;;;;;;;;6057757;23;20208;-65
2023/07/16 03:45:43;;;;;;;6.10;4.93;;;;;;;;;;6060416;23;20027;-61
2023/07/16 03:48:10;;;;;;;9.88;5.13;;;;;;;;;;6057668;23;20027;-59
2023/07/16 03:50:38;;;;;;;12.30;4.95;;;;;;;;;;6060956;23;20027;-59
2023/07/16 03:53:11;;;;;;;12.63;5.43;;;;;;;;;;6058609;23;20046;-59
2023/07/16 03:55:38;;;;;;;11.15;5.03;;;;;;;;;;6059217;23;20027;-66
2023/07/16 03:58:12;;;;;;;15.15;4.85;;;;;;;;;;6059649;23;20558;-66
2023/07/16 04:00:41;;;;;;;7.75;4.65;;;;;;;;;;6058998;23;20396;-64
2023/07/16 04:03:08;;;;;;;6.10;4.00;;;;;;;;;;6059320;23;20082;-65
2023/07/16 04:05:43;;;;;;;7.50;4.40;;;;;;;;;;6059770;23;20030;-65
2023/07/16 04:08:10;;;;;;;6.35;3.88;;;;;;;;;;6058064;23;20081;-65
2023/07/16 04:10:43;;;;;;;7.75;4.70;;;;;;;;;;6059874;23;20390;-65
2023/07/16 04:13:11;;;;;;;9.40;4.53;;;;;;;;;;6059172;23;20066;-59
2023/07/16 04:15:38;;;;;;;7.53;4.40;;;;;;;;;;6059610;23;20023;-60
2023/07/16 04:18:11;;;;;;;6.45;4.18;;;;;;;;;;6059319;23;20031;-60
2023/07/16 04:20:38;;;;;;;6.40;4.82;;;;;;;;;;6057376;23;20268;-60
2023/07/16 04:23:12;;;;;;;6.75;4.00;;;;;;;;;;6059787;23;20082;-59
2023/07/16 04:25:39;;;;;;;6.97;3.92;;;;;;;;;;6057948;23;20023;-64
2023/07/16 04:28:07;;;;;;;6.80;4.30;;;;;;;;;;6058537;23;20086;-65
2023/07/16 04:30:40;;;;;;;14.38;4.80;;;;;;;;;;6059391;23;20030;-64
2023/07/16 04:33:07;;;;;;;8.10;5.03;;;;;;;;;;6057731;23;20403;-65
2023/07/16 04:35:41;;;;;;;10.40;5.13;;;;;;;;;;6058430;23;20102;-66
2023/07/16 04:38:08;;;;;;;10.60;5.30;;;;;;;;;;6059493;23;20450;-65
2023/07/16 04:40:36;;;;;;;13.65;5.45;;;;;;;;;;6059806;23;20074;-65
2023/07/16 04:43:11;;;;;;;6.95;4.85;;;;;;;;;;6057793;23;20027;-59
2023/07/16 04:45:39;;;;;;;18.35;5.55;;;;;;;;;;6058486;23;20495;-58
2023/07/16 04:48:07;;;;;;;8.55;4.65;;;;;;;;;;6058170;23;20558;-58
2023/07/16 04:50:41;;;;;;;9.40;4.50;;;;;;;;;;6059339;23;20023;-58
2023/07/16 04:53:09;;;;;;;10.98;4.82;;;;;;;;;;6059312;23;20398;-58
2023/07/16 04:55:43;;;;;;;9.80;5.93;;;;;;;;;;6056501;23;20074;-65
2023/07/16 04:58:14;;;;;;;22.70;8.50;;;;;;;;;;6058557;23;20561;-65
2023/07/16 05:00:41;;;;;;;12.50;6.97;;;;;;;;;;6054334;23;20026;-64
2023/07/16 05:03:15;;;;;;;7.55;5.65;;;;;;;;;;6056726;23;20035;-65
2023/07/16 05:05:43;;;;;;;19.38;7.95;;;;;;;;;;6058683;23;20086;-65
2023/07/16 05:08:17;;;;;;;11.23;5.32;;;;;;;;;;6058556;23;20026;-65
2023/07/16 05:10:44;;;;;;;14.98;5.95;;;;;;;;;;6058410;23;20026;-56
2023/07/16 05:13:11;;;;;;;17.45;7.40;;;;;;;;;;6059747;23;20027;-53
2023/07/16 05:15:45;;;;;;;11.73;5.95;;;;;;;;;;6058671;23;20034;-55
2023/07/16 05:18:12;;;;;;;11.00;4.95;;;;;;;;;;6055118;23;20512;-53
2023/07/16 05:20:49;;;;;;;9.32;6.00;;;;;;;;;;6053075;23;20054;-60
2023/07/16 05:23:16;;;;;;;8.85;6.47;;;;;;;;;;6059382;23;20031;-59
2023/07/16 05:25:53;;;;;;;6.63;5.38;;;;;;;;;;6058251;23;20051;-60
2023/07/16 05:28:33;;;;;;;12.85;5.93;;;;;;;;;;6057589;23;20034;-60
2023/07/16 05:31:01;;;;;;;13.35;5.57;;;;;;;;;;6058836;23;20027;-61
2023/07/16 05:33:34;;;;;;;16.60;7.20;;;;;;;;;;6058220;23;20027;-59
2023/07/16 05:36:01;;;;;;;11.88;5.57;;;;;;;;;;6060483;23;20027;-59
2023/07/16 05:38:28;;;;;;;9.82;5.40;;;;;;;;;;6059579;23;20105;-69
2023/07/16 05:41:03;;;;;;;13.55;6.00;;;;;;;;;;6058310;23;20074;-69
2023/07/16 05:43:30;;;;;;;9.07;5.13;;;;;;;;;;6056815;23;20503;-70
2023/07/16 05:46:05;;;;;;;7.93;5.13;;;;;;;;;;6060232;23;20034;-70
2023/07/16 05:48:32;;;;;;;10.63;5.00;;;;;;;;;;6058289;23;20027;-60
2023/07/16 05:50:59;;;;;;;11.18;5.47;;;;;;;;;;6059181;23;20026;-58
2023/07/16 05:53:33;;;;;;;10.30;5.50;;;;;;;;;;6058975;23;20415;-58
2023/07/16 05:56:00;;;;;;;8.50;5.30;;;;;;;;;;6058653;23;20027;-58
2023/07/16 05:58:27;;;;;;;12.00;5.80;;;;;;;;;;6059353;23;20030;-59
2023/07/16 06:01:01;;;;;;;9.75;5.07;;;;;;;;;;6059694;23;20078;-58
2023/07/16 06:03:29;;;;;;;11.60;5.85;;;;;;;;;;6057362;23;20368;-59
2023/07/16 06:06:06;;;;;;;8.90;5.72;;;;;;;;;;6059626;23;20050;-58
2023/07/16 06:08:33;;;;;;;11.57;5.22;;;;;;;;;;6059178;23;20077;-59
2023/07/16 06:11:00;;;;;;;16.25;5.70;;;;;;;;;;6058317;23;20034;-58
2023/07/16 06:13:34;;;;;;;11.00;4.80;;;;;;;;;;6058613;23;20375;-58
2023/07/16 06:16:01;;;;;;;11.50;4.82;;;;;;;;;;6056466;23;20023;-58
2023/07/16 06:18:35;;;;;;;10.27;4.85;;;;;;;;;;6057534;23;20055;-59
2023/07/16 06:21:03;;;;;;;10.77;4.70;;;;;;;;;;6058017;23;20391;-55
2023/07/16 06:23:30;;;;;;;;;;;;;;;;;;6057536;23;20033;-54
2023/07/16 06:26:04;;;;;;;15.32;5.07;;;;;;;;;;6055954;23;19918;-55
2023/07/16 06:28:38;;;;;;;15.60;5.30;;;;;;;;;;6057319;23;20370;-53
2023/07/16 06:31:11;;;;;;;9.05;5.60;;;;;;;;;;6054296;23;20557;-55
2023/07/16 06:33:39;;;;;;;14.82;5.68;;;;;;;;;;6057346;23;20027;-53
2023/07/16 06:36:06;;;;;;;14.18;5.32;;;;;;;;;;6059957;23;20491;-71
2023/07/16 06:38:40;;;;;;;10.70;5.05;;;;;;;;;;6057844;23;20558;-70
2023/07/16 06:41:07;;;;;;;13.40;5.53;;;;;;;;;;6055442;23;20565;-71
2023/07/16 06:43:41;;;;;;;13.15;5.28;;;;;;;;;;6058797;23;20446;-70
2023/07/16 06:46:09;;;;;;;8.77;4.40;;;;;;;;;;6059697;23;20131;-70
2023/07/16 06:48:36;;;;;;;14.60;5.55;;;;;;;;;;6059660;23;20030;-59
2023/07/16 06:51:09;;;;;;;10.32;4.82;;;;;;;;;;6061501;23;20023;-59
2023/07/16 06:53:36;;;;;;;13.23;4.85;;;;;;;;;;6060449;23;20035;-58
2023/07/16 06:56:04;;;;;;;10.73;4.30;;;;;;;;;;6061520;23;20062;-59
2023/07/16 06:58:37;;;;;;;11.70;4.82;;;;;;;;;;6060362;23;20498;-60
2023/07/16 07:01:04;;;;;;;17.05;5.10;;;;;;;;;;6058848;23;20078;-58
2023/07/16 07:03:38;;;;;;;10.70;4.25;;;;;;;;;;6059212;23;20487;-64
2023/07/16 07:06:06;;;;;;;11.40;4.35;;;;;;;;;;6059776;23;20503;-64
2023/07/16 07:08:33;;;;;;;7.60;4.00;;;;;;;;;;6058606;23;20526;-65
2023/07/16 07:11:06;;;;;;;11.07;3.80;;;;;;;;;;6058379;23;20026;-65
2023/07/16 07:13:33;;;;;;;9.60;4.38;;;;;;;;;;6058621;23;20026;-59
2023/07/16 07:16:07;;;;;;;12.23;4.15;;;;;;;;;;6059850;23;20029;-59
2023/07/16 07:18:34;;;;;;;13.98;4.28;;;;;;;;;;6056356;23;20026;-61
2023/07/16 07:21:02;;;;;;;10.55;4.15;;;;;;;;;;6057165;23;20026;-58
2023/07/16 07:23:35;;;;;;;13.55;3.40;;;;;;;;;;6057462;23;20689;-58
2023/07/16 07:26:02;;;;;;;17.42;4.28;;;;;;;;;;6057329;23;20114;-57
2023/07/16 07:28:29;;;;;;;8.15;3.58;;;;;;;;;;6058179;23;20030;-59
2023/07/16 07:31:10;;;;;;;10.38;3.58;;;;;;;;;;6055232;23;20022;-58
2023/07/16 07:33:37;;;;;;;13.27;4.35;;;;;;;;;;6058270;23;20019;-58
2023/07/16 07:36:11;;;;;;;8.75;3.67;;;;;;;;;;6056469;23;20364;-58
2023/07/16 07:38:38;;;;;;;10.52;4.07;;;;;;;;;;6057166;23;20031;-58
2023/07/16 07:41:06;;;;;;;9.18;4.00;;;;;;;;;;6059679;23;20079;-58
2023/07/16 07:43:40;;;;;;;7.50;3.78;;;;;;;;;;6058967;23;20030;-59
2023/07/16 07:46:07;;;;;;;6.60;3.50;;;;;;;;;;6056840;23;20375;-61
2023/07/16 07:48:42;;;;;;;13.85;3.83;;;;;;;;;;6060483;23;20022;-61
2023/07/16 07:51:09;;;;;;;13.77;3.90;;;;;;;;;;6058423;23;20494;-61
2023/07/16 07:53:43;;;;;;;19.05;4.70;;;;;;;;;;6057901;23;20094;-62
2023/07/16 07:56:10;;;;;;;14.30;4.25;;;;;;;;;;6057735;23;20359;-61
2023/07/16 07:58:38;;;;;;;15.93;3.58;;;;;;;;;;6059132;23;20026;-62
2023/07/16 08:01:11;;;;;;;15.13;3.75;;;;;;;;;;6059253;23;20721;-71
2023/07/16 08:03:39;;;;;;;9.15;3.88;;;;;;;;;;6056885;23;20033;-70
2023/07/16 08:06:06;;;;;;;13.73;3.38;;;;;;;;;;6059049;23;20110;-70
2023/07/16 08:08:41;;;;;;;11.75;3.80;;;;;;;;;;6057030;23;20026;-70
2023/07/16 08:11:08;;;;;;;14.38;3.97;;;;;;;;;;6059571;23;20030;-57
2023/07/16 08:13:42;;;;;;;17.40;4.03;;;;;;;;;;6058432;23;20027;-69
2023/07/16 08:16:10;;;;;;;15.25;3.33;;;;;;;;;;6058791;23;20031;-69
2023/07/16 08:18:37;;;;;;;13.43;3.90;;;;;;;;;;6058887;23;20018;-69
2023/07/16 08:21:15;;;;;;;17.50;3.42;;;;;;;;;;6059508;23;20027;-69
2023/07/16 08:23:42;;;;;;;18.63;4.68;;;;;;;;;;6056515;23;20100;-69
2023/07/16 08:26:17;;;;;;;10.68;3.42;;;;;;;;;;6058954;23;20030;-67
2023/07/16 08:28:51;;;;;;;17.60;4.32;;;;;;;;;;6054948;23;20023;-60
2023/07/16 08:31:25;;;;;;;19.70;4.38;;;;;;;;;;6057659;23;20034;-60
2023/07/16 08:33:53;;;;;;;13.32;3.88;;;;;;;;;;6058563;23;20136;-59
2023/07/16 08:36:20;;;;;;;17.88;4.25;;;;;;;;;;6058060;23;20094;-60
2023/07/16 08:38:54;;;;;;;17.90;4.07;;;;;;;;;;6058045;23;20031;-54
2023/07/16 08:41:21;;;;;;;17.50;4.13;;;;;;;;;;6059526;23;20153;-58
2023/07/16 08:43:55;;;;;;;19.88;4.57;;;;;;;;;;6058030;23;20023;-60
2023/07/16 08:46:23;;;;;;;21.95;5.28;;;;;;;;;;6058574;23;20022;-60
2023/07/16 08:48:51;;;;;;;14.07;4.28;;;;;;;;;;6059990;23;20840;-61
2023/07/16 08:51:26;;;;;;;17.63;4.18;;;;;;;;;;6058186;23;20027;-60
2023/07/16 08:53:53;;;;;;;18.70;4.43;;;;;;;;;;6058440;23;20072;-60
2023/07/16 08:56:27;;;;;;;13.30;4.15;;;;;;;;;;6057855;23;20086;-60
2023/07/16 08:58:58;;;;;;;23.20;4.97;;;;;;;;;;6057887;23;20029;-49
2023/07/16 09:01:32;;;;;;;19.23;4.47;;;;;;;;;;6055507;23;20391;-51
2023/07/16 09:04:00;;;;;;;18.67;4.72;;;;;;;;;;6058519;23;20114;-54
2023/07/16 09:06:27;;;;;;;22.92;5.00;;;;;;;;;;6056954;23;20054;-50
2023/07/16 09:09:01;;;;;;;19.80;5.45;;;;;;;;;;6058170;23;20023;-59
2023/07/16 09:11:28;;;;;;;23.42;4.72;;;;;;;;;;6056828;23;20035;-59
2023/07/16 09:14:03;;;;;;;17.17;4.45;;;;;;;;;;6057617;23;20030;-59
2023/07/16 09:16:34;;;;;;;18.65;4.80;;;;;;;;;;6055895;23;20554;-59
2023/07/16 09:19:11;;;;;;;21.85;5.40;;;;;;;;;;6058173;23;20026;-59
2023/07/16 09:21:49;;;;;;;17.55;5.22;;;;;;;;;;6057221;23;20019;-59
2023/07/16 09:24:16;;;;;;;21.20;5.57;;;;;;;;;;6057673;23;20027;-59
2023/07/16 09:27:01;;;;;;;25.33;5.43;;;;;;;;;;6058793;23;20030;-59
2023/07/16 09:29:38;;;;;;;19.77;4.95;;;;;;;;;;6028558;23;20027;-58
2023/07/16 09:32:13;;;;;;;16.30;5.22;;;;;;;;;;6029073;23;20578;-59
2023/07/16 09:34:40;;;;;;;25.40;5.43;;;;;;;;;;6026684;23;20035;-58
2023/07/16 09:37:13;;;;;;;20.73;5.80;;;;;;;;;;6027219;23;20079;-63
2023/07/16 09:39:41;;;;;;;17.60;5.63;;;;;;;;;;6026459;23;20494;-61
2023/07/16 09:42:16;;;;;;;23.13;5.97;;;;;;;;;;6027832;23;20027;-62
2023/07/16 09:45:03;;;;;;;21.65;5.75;;;;;;;;;;6027722;23;20083;-62
2023/07/16 09:47:57;;;;;;;19.58;6.38;;;;;;;;;;6030085;23;20027;-61
2023/07/16 09:50:50;;;;;;;19.08;6.03;;;;;;;;;;6023969;23;20431;-61
2023/07/16 09:53:47;;;;;;;23.30;6.07;;;;;;;;;;6029409;23;20478;-59
2023/07/16 09:56:39;;;;;;;17.90;5.68;;;;;;;;;;6028229;23;20503;-64
2023/07/16 09:59:34;;;;;;;21.27;6.68;;;;;;;;;;6025584;23;20030;-64
2023/07/16 10:02:21;;;;;;;26.73;6.85;;;;;;;;;;6029223;23;20030;-63
2023/07/16 10:05:16;;;;;;;22.00;6.45;;;;;;;;;;6027664;23;20031;-57
2023/07/16 10:08:04;;;;;;;25.83;6.85;;;;;;;;;;6029839;23;20079;-58
2023/07/16 10:10:58;;;;;;;25.42;6.75;;;;;;;;;;6027564;23;20075;-58
2023/07/16 10:13:51;;;;;;;21.27;6.70;;;;;;;;;;6026501;23;20546;-58
2023/07/16 10:16:47;;;;;;;22.80;6.35;;;;;;;;;;6027892;23;20028;-58
2023/07/16 10:19:46;;;;;;;23.25;6.75;;;;;;;;;;6028044;23;20023;-58
2023/07/16 10:22:41;;;;;;;37.00;7.93;;;;;;;;;;6031186;23;20475;-58
2023/07/16 10:25:29;;;;;;;19.95;7.18;;;;;;;;;;6030832;23;20027;-58
2023/07/16 10:28:29;;;;;;;26.10;7.20;;;;;;;;;;6048787;23;20092;-58
2023/07/16 10:31:24;;;;;;;23.15;7.15;;;;;;;;;;6057425;23;20027;-58
2023/07/16 10:34:18;;;;;;;26.30;7.05;;;;;;;;;;6058388;23;20033;-51
2023/07/16 10:37:06;;;;;;;26.27;7.10;;;;;;;;;;6059498;23;20449;-61
2023/07/16 10:40:01;;;;;;;22.15;6.47;;;;;;;;;;6058835;23;20484;-60
2023/07/16 10:42:48;;;;;;;31.35;8.05;;;;;;;;;;6058548;23;20027;-61
2023/07/16 10:45:41;;;;;;;25.00;7.35;;;;;;;;;;6057229;23;20082;-61
2023/07/16 10:48:29;;;;;;;23.52;7.45;;;;;;;;;;6055913;23;20101;-62
2023/07/16 10:51:26;;;;;;;23.75;7.40;;;;;;;;;;6053293;23;20382;-58
2023/07/16 10:54:13;;;;;;;27.10;8.45;;;;;;;;;;6059471;23;20438;-59
2023/07/16 10:57:07;;;;;;;22.85;8.35;;;;;;;;;;6061818;23;20030;-59
2023/07/16 10:59:56;;;;;;;23.65;7.95;;;;;;;;;;6056630;23;20468;-59
2023/07/16 11:02:50;;;;;;;25.75;8.25;;;;;;;;;;6059424;23;20026;-64
2023/07/16 11:05:38;;;;;;;24.60;7.68;;;;;;;;;;6059228;23;20033;-53
2023/07/16 11:08:31;;;;;;;24.05;8.05;;;;;;;;;;6059756;23;20023;-54
2023/07/16 11:11:28;;;;;;;26.17;8.40;;;;;;;;;;6059351;23;20413;-54
2023/07/16 11:14:21;;;;;;;19.88;7.40;;;;;;;;;;6059314;23;20030;-54
2023/07/16 11:17:10;;;;;;;26.58;8.18;;;;;;;;;;6059104;23;20085;-52
2023/07/16 11:20:04;;;;;;;16.08;7.10;;;;;;;;;;6059354;23;20062;-66
2023/07/16 11:22:49;;;;;;;22.90;7.90;;;;;;;;;;6058757;23;20098;-66
2023/07/16 11:25:47;;;;;;;27.00;7.68;;;;;;;;;;6058456;23;20090;-66
2023/07/16 11:28:45;;;;;;;22.85;8.27;;;;;;;;;;6058707;23;20042;-65
2023/07/16 11:31:43;;;;;;;22.77;6.82;;;;;;;;;;6057850;23;20529;-60
2023/07/16 11:34:30;;;;;;;19.73;7.00;;;;;;;;;;6057662;23;20031;-52
2023/07/16 11:37:25;;;;;;;23.02;7.72;;;;;;;;;;6059680;23;20035;-55
2023/07/16 11:40:15;;;;;;;18.52;7.10;;;;;;;;;;6058836;23;20030;-53
2023/07/16 11:43:13;;;;;;;22.13;7.50;;;;;;;;;;6058628;23;20030;-53
2023/07/16 11:46:00;;;;;;;33.83;8.40;;;;;;;;;;6058427;23;20086;-55
2023/07/16 11:48:53;;;;;;;23.95;7.20;;;;;;;;;;6058954;23;20031;-58
2023/07/16 11:51:47;;;;;;;23.35;6.40;;;;;;;;;;6058273;23;20415;-58
2023/07/16 11:54:34;;;;;;;22.77;6.72;;;;;;;;;;6058559;23;20023;-58
2023/07/16 11:57:28;;;;;;;18.50;6.80;;;;;;;;;;6056768;23;20031;-58
2023/07/16 12:00:17;;;;;;;20.67;6.20;;;;;;;;;;6057783;23;20027;-57
2023/07/16 12:03:09;;;;;;;20.48;6.20;;;;;;;;;;6059792;23;20027;-58
2023/07/16 12:06:04;;;;;;;14.20;6.18;;;;;;;;;;6059793;23;20069;-57
2023/07/16 12:08:51;;;;;;;21.98;5.93;;;;;;;;;;6059736;23;20451;-57
2023/07/16 12:11:51;;;;;;;24.00;5.95;;;;;;;;;;6058621;23;20029;-56
2023/07/16 12:14:38;;;;;;;16.20;5.70;;;;;;;;;;6060330;23;20102;-57
2023/07/16 12:17:33;;;;;;;21.63;6.47;;;;;;;;;;6058528;23;20371;-59
2023/07/16 12:20:20;;;;;;;18.77;5.20;;;;;;;;;;6057821;23;20054;-58
2023/07/16 12:23:14;;;;;;;18.60;5.60;;;;;;;;;;6057874;23;20081;-59
2023/07/16 12:26:01;;;;;;;17.50;6.03;;;;;;;;;;6059595;23;20030;-59
2023/07/16 12:29:03;;;;;;;18.10;6.00;;;;;;;;;;6053511;23;20498;-58
2023/07/16 12:31:48;;;;;;;15.75;5.70;;;;;;;;;;6057659;23;20491;-59
2023/07/16 12:34:42;;;;;;;19.90;6.22;;;;;;;;;;6056893;23;20074;-58
2023/07/16 12:37:29;;;;;;;20.95;6.03;;;;;;;;;;6058394;23;20022;-59
2023/07/16 12:40:23;;;;;;;17.83;6.57;;;;;;;;;;6057324;23;20082;-59
2023/07/16 12:43:10;;;;;;;19.65;6.35;;;;;;;;;;6057886;23;20031;-58
2023/07/16 12:46:05;;;;;;;16.08;5.57;;;;;;;;;;6057854;23;20031;-59
2023/07/16 12:48:52;;;;;;;26.98;6.57;;;;;;;;;;6057242;23;20023;-59
2023/07/16 12:51:45;;;;;;;15.32;5.93;;;;;;;;;;6058220;23;20071;-59
2023/07/16 12:54:32;;;;;;;24.67;5.68;;;;;;;;;;6058034;23;20026;-62
2023/07/16 12:57:26;;;;;;;17.30;5.72;;;;;;;;;;6057168;23;20317;-64
2023/07/16 13:00:14;;;;;;;13.52;5.05;;;;;;;;;;6055027;23;20026;-58
2023/07/16 13:03:14;;;;;;;20.65;5.60;;;;;;;;;;6057993;23;20094;-59
2023/07/16 13:05:59;;;;;;;20.63;5.43;;;;;;;;;;6055643;23;20034;-58
2023/07/16 13:08:52;;;;;;;22.95;5.72;;;;;;;;;;6058345;23;20027;-58
2023/07/16 13:11:40;;;;;;;16.88;5.03;;;;;;;;;;6055892;23;20023;-58
2023/07/16 13:14:33;;;;;;;19.42;4.95;;;;;;;;;;6058956;23;20027;-52
2023/07/16 13:17:21;;;;;;;22.67;4.82;;;;;;;;;;6056244;23;20031;-51
2023/07/16 13:20:15;;;;;;;17.02;4.80;;;;;;;;;;6055861;23;20045;-51
2023/07/16 13:23:03;;;;;;;19.70;4.95;;;;;;;;;;6058082;23;20059;-53
2023/07/16 13:25:56;;;;;;;19.10;4.90;;;;;;;;;;6056579;23;20086;-58
2023/07/16 13:28:50;;;;;;;16.88;5.35;;;;;;;;;;6056497;23;20028;-61
2023/07/16 13:31:49;;;;;;;15.10;4.88;;;;;;;;;;6056792;23;20026;-61
2023/07/16 13:34:36;;;;;;;17.42;4.05;;;;;;;;;;6059101;23;20383;-62
2023/07/16 13:37:31;;;;;;;18.27;5.68;;;;;;;;;;6057298;23;20030;-62
2023/07/16 13:40:20;;;;;;;15.35;4.75;;;;;;;;;;6056332;23;20023;-61
2023/07/16 13:43:11;;;;;;;18.17;4.43;;;;;;;;;;6059149;23;20078;-58
2023/07/16 13:45:59;;;;;;;19.02;4.88;;;;;;;;;;6058153;23;20031;-58
2023/07/16 13:48:53;;;;;;;13.93;4.20;;;;;;;;;;6057208;23;20087;-58
2023/07/16 13:51:40;;;;;;;21.05;5.78;;;;;;;;;;6056010;23;20022;-52
2023/07/16 13:54:33;;;;;;;16.08;4.80;;;;;;;;;;6058392;23;20027;-58
2023/07/16 13:57:21;;;;;;;19.52;4.90;;;;;;;;;;6058349;23;20023;-57
2023/07/16 14:00:15;;;;;;;22.48;5.40;;;;;;;;;;6057823;23;20023;-58
2023/07/16 14:03:03;;;;;;;15.52;4.90;;;;;;;;;;6057091;23;20023;-58
2023/07/16 14:06:02;;;;;;;16.10;4.85;;;;;;;;;;6056873;23;20038;-58
2023/07/16 14:08:49;;;;;;;19.95;5.10;;;;;;;;;;6058545;23;20027;-57
2023/07/16 14:11:45;;;;;;;14.88;4.88;;;;;;;;;;6057305;23;20538;-58
2023/07/16 14:14:31;;;;;;;16.75;5.18;;;;;;;;;;6057302;23;20066;-58
2023/07/16 14:17:25;;;;;;;14.20;4.40;;;;;;;;;;6057284;23;20022;-58
2023/07/16 14:20:12;;;;;;;20.48;5.82;;;;;;;;;;6059617;23;20057;-60
2023/07/16 14:23:06;;;;;;;16.63;4.68;;;;;;;;;;6058021;23;20022;-65
2023/07/16 14:25:53;;;;;;;16.70;5.03;;;;;;;;;;6055572;23;20086;-65
2023/07/16 14:28:53;;;;;;;16.45;4.93;;;;;;;;;;6056057;23;20026;-65
2023/07/16 14:31:40;;;;;;;19.75;4.78;;;;;;;;;;6056868;23;20038;-65
2023/07/16 14:34:35;;;;;;;14.15;4.97;;;;;;;;;;6057059;23;20063;-65
2023/07/16 14:37:22;;;;;;;15.40;4.70;;;;;;;;;;6055316;23;20602;-65
2023/07/16 14:40:16;;;;;;;14.98;4.22;;;;;;;;;;6059417;23;20391;-58
2023/07/16 14:43:04;;;;;;;17.05;5.10;;;;;;;;;;6060042;23;20027;-59
2023/07/16 14:45:59;;;;;;;13.90;4.72;;;;;;;;;;6058176;23;20597;-58
2023/07/16 14:48:46;;;;;;;17.40;4.90;;;;;;;;;;6059393;23;20023;-61
2023/07/16 14:51:41;;;;;;;15.48;4.70;;;;;;;;;;6058005;23;20026;-58
2023/07/16 14:54:28;;;;;;;15.13;4.72;;;;;;;;;;6056977;23;20051;-58
2023/07/16 14:57:22;;;;;;;14.82;4.82;;;;;;;;;;6059927;23;20023;-57
2023/07/16 15:00:11;;;;;;;22.77;5.95;;;;;;;;;;6059786;23;20356;-56
2023/07/16 15:03:04;;;;;;;22.13;4.53;;;;;;;;;;6057612;23;20085;-57
2023/07/16 15:05:50;;;;;;;18.70;5.05;;;;;;;;;;6056069;23;20362;-58
2023/07/16 15:08:24;;;;;;;18.08;5.25;;;;;;;;;;6059976;23;20022;-55
2023/07/16 15:11:00;;;;;;;21.60;5.22;;;;;;;;;;6057751;23;20131;-57
2023/07/16 15:13:48;;;;;;;22.67;5.28;;;;;;;;;;6059873;23;20086;-58
2023/07/16 15:16:41;;;;;;;23.10;5.35;;;;;;;;;;6060379;23;20022;-57
2023/07/16 15:19:29;;;;;;;23.25;5.20;;;;;;;;;;6060597;23;20027;-64
2023/07/16 15:22:22;;;;;;;22.92;5.65;;;;;;;;;;6058505;23;20078;-56
2023/07/16 15:25:10;;;;;;;22.27;5.65;;;;;;;;;;6057578;23;20102;-57
2023/07/16 15:28:11;;;;;;;19.48;5.70;;;;;;;;;;6058557;23;20027;-57
2023/07/16 15:30:57;;;;;;;19.65;5.53;;;;;;;;;;6058955;23;20386;-57
2023/07/16 15:33:51;;;;;;;19.40;4.95;;;;;;;;;;6058784;23;20093;-56
2023/07/16 15:36:39;;;;;;;21.80;5.32;;;;;;;;;;6056022;23;20027;-57